sensor_id;sensor_type;location;lat;lon;timestamp;pressure;altitude;pressure_sealevel;temperature;humidity
13695;BME280;6919;52.344;14.518;2024-01-15T00:01:42;98619.03;;;1.91;100.00
13695;BME280;6919;52.344;14.518;2024-01-15T00:04:12;98618.50;;;1.88;100.00
13695;BME280;6919;52.344;14.518;2024-01-15T00:06:42;98614.28;;;1.95;100.00
13695;BME280;6919;52.344;14.518;2024-01-15T00:09:10;98607.91;;;1.88;100.00
13695;BME280;6919;52.344;14.518;2024-01-15T00:11:38;98594.13;;;1.94;100.00
13695;BME280;6919;52.344;14.518;2024-01-15T00:14:07;98587.06;;;1.85;100.00
13695;BME280;6919;52.344;14.518;2024-01-15T00:16:35;98581.78;;;1.85;100.00
13695;BME280;6919;52.344;14.518;2024-01-15T00:19:03;98570.41;;;1.84;100.00
13695;BME280;6919;52.344;14.518;2024-01-15T00:21:32;98553.72;;;1.84;100.00
13695;BME280;6919;52.344;14.518;2024-01-15T00:24:02;98546.00;;;1.90;100.00
13695;BME280;6919;52.344;14.518;2024-01-15T00:26:30;98554.19;;;1.97;100.00
13695;BME280;6919;52.344;14.518;2024-01-15T00:28:59;98548.50;;;1.92;100.00
13695;BME280;6919;52.344;14.518;2024-01-15T00:31:27;98535.59;;;1.89;100.00
13695;BME280;6919;52.344;14.518;2024-01-15T00:33:57;98539.00;;;1.99;100.00
13695;BME280;6919;52.344;14.518;2024-01-15T00:36:26;98522.25;;;1.90;100.00
13695;BME280;6919;52.344;14.518;2024-01-15T00:38:54;98520.81;;;1.96;100.00
13695;BME280;6919;52.344;14.518;2024-01-15T00:41:24;98511.97;;;2.05;100.00
13695;BME280;6919;52.344;14.518;2024-01-15T00:43:54;98505.50;;;1.99;100.00
13695;BME280;6919;52.344;14.518;2024-01-15T00:46:22;98496.88;;;1.97;100.00
13695;BME280;6919;52.344;14.518;2024-01-15T00:48:51;98487.22;;;1.88;100.00
13695;BME280;6919;52.344;14.518;2024-01-15T00:51:19;98478.84;;;1.93;100.00
13695;BME280;6919;52.344;14.518;2024-01-15T00:53:48;98482.00;;;1.96;100.00
13695;BME280;6919;52.344;14.518;2024-01-15T00:56:16;98477.47;;;1.89;100.00
13695;BME280;6919;52.344;14.518;2024-01-15T00:58:46;98471.69;;;1.85;100.00
13695;BME280;6919;52.344;14.518;2024-01-15T01:01:14;98466.41;;;1.85;100.00
13695;BME280;6919;52.344;14.518;2024-01-15T01:03:42;98473.88;;;1.90;100.00
13695;BME280;6919;52.344;14.518;2024-01-15T01:06:11;98454.84;;;1.86;100.00
13695;BME280;6919;52.344;14.518;2024-01-15T01:08:39;98467.25;;;1.86;100.00
13695;BME280;6919;52.344;14.518;2024-01-15T01:11:08;98458.97;;;1.89;100.00
13695;BME280;6919;52.344;14.518;2024-01-15T01:13:40;98450.00;;;1.82;100.00
13695;BME280;6919;52.344;14.518;2024-01-15T01:16:10;98452.50;;;1.66;100.00
13695;BME280;6919;52.344;14.518;2024-01-15T01:18:38;98456.28;;;1.63;100.00
13695;BME280;6919;52.344;14.518;2024-01-15T01:21:07;98436.13;;;1.62;100.00
13695;BME280;6919;52.344;14.518;2024-01-15T01:23:35;98440.97;;;1.67;100.00
13695;BME280;6919;52.344;14.518;2024-01-15T01:26:03;98449.72;;;1.67;100.00
13695;BME280;6919;52.344;14.518;2024-01-15T01:28:32;98451.72;;;1.73;100.00
13695;BME280;6919;52.344;14.518;2024-01-15T01:31:00;98458.63;;;1.66;100.00
13695;BME280;6919;52.344;14.518;2024-01-15T01:33:30;98447.28;;;1.74;100.00
13695;BME280;6919;52.344;14.518;2024-01-15T01:35:59;98446.41;;;1.83;100.00
13695;BME280;6919;52.344;14.518;2024-01-15T01:38:28;98431.44;;;1.74;100.00
13695;BME280;6919;52.344;14.518;2024-01-15T01:40:57;98436.22;;;1.70;100.00
13695;BME280;6919;52.344;14.518;2024-01-15T01:43:26;98431.22;;;1.67;100.00
13695;BME280;6919;52.344;14.518;2024-01-15T01:45:57;98430.59;;;1.73;100.00
13695;BME280;6919;52.344;14.518;2024-01-15T01:48:26;98431.59;;;1.72;100.00
13695;BME280;6919;52.344;14.518;2024-01-15T01:50:59;98427.59;;;1.68;100.00
13695;BME280;6919;52.344;14.518;2024-01-15T01:53:29;98422.88;;;1.72;100.00
13695;BME280;6919;52.344;14.518;2024-01-15T01:55:59;98428.06;;;1.64;100.00
13695;BME280;6919;52.344;14.518;2024-01-15T01:58:28;98420.13;;;1.64;100.00
13695;BME280;6919;52.344;14.518;2024-01-15T02:00:57;98428.19;;;1.62;100.00
13695;BME280;6919;52.344;14.518;2024-01-15T02:03:27;98419.22;;;1.55;100.00
13695;BME280;6919;52.344;14.518;2024-01-15T02:05:59;98406.03;;;1.55;100.00
13695;BME280;6919;52.344;14.518;2024-01-15T02:08:28;98422.63;;;1.48;100.00
13695;BME280;6919;52.344;14.518;2024-01-15T02:10:57;98415.00;;;1.45;100.00
13695;BME280;6919;52.344;14.518;2024-01-15T02:13:25;98412.88;;;1.48;100.00
13695;BME280;6919;52.344;14.518;2024-01-15T02:15:53;98412.50;;;1.43;100.00
13695;BME280;6919;52.344;14.518;2024-01-15T02:18:22;98414.47;;;1.41;100.00
13695;BME280;6919;52.344;14.518;2024-01-15T02:20:50;98412.72;;;1.50;100.00
13695;BME280;6919;52.344;14.518;2024-01-15T02:23:20;98411.00;;;1.41;100.00
13695;BME280;6919;52.344;14.518;2024-01-15T02:25:49;98423.22;;;1.42;100.00
13695;BME280;6919;52.344;14.518;2024-01-15T02:28:18;98414.72;;;1.48;100.00
13695;BME280;6919;52.344;14.518;2024-01-15T02:30:46;98426.00;;;1.40;100.00
13695;BME280;6919;52.344;14.518;2024-01-15T02:33:15;98426.31;;;1.37;100.00
13695;BME280;6919;52.344;14.518;2024-01-15T02:35:43;98436.44;;;1.42;100.00
13695;BME280;6919;52.344;14.518;2024-01-15T02:38:13;98438.41;;;1.40;100.00
13695;BME280;6919;52.344;14.518;2024-01-15T02:40:44;98449.09;;;1.38;100.00
13695;BME280;6919;52.344;14.518;2024-01-15T02:43:12;98435.66;;;1.32;100.00
13695;BME280;6919;52.344;14.518;2024-01-15T02:45:41;98439.50;;;1.37;100.00
13695;BME280;6919;52.344;14.518;2024-01-15T02:48:09;98447.06;;;1.32;100.00
13695;BME280;6919;52.344;14.518;2024-01-15T02:50:38;98438.22;;;1.41;100.00
13695;BME280;6919;52.344;14.518;2024-01-15T02:53:06;98442.28;;;1.36;100.00
13695;BME280;6919;52.344;14.518;2024-01-15T02:55:34;98444.84;;;1.28;100.00
13695;BME280;6919;52.344;14.518;2024-01-15T02:58:05;98439.50;;;1.37;100.00
13695;BME280;6919;52.344;14.518;2024-01-15T03:00:33;98443.72;;;1.30;100.00
13695;BME280;6919;52.344;14.518;2024-01-15T03:03:01;98444.28;;;1.34;100.00
13695;BME280;6919;52.344;14.518;2024-01-15T03:05:30;98449.09;;;1.38;100.00
13695;BME280;6919;52.344;14.518;2024-01-15T03:07:58;98449.63;;;1.42;100.00
13695;BME280;6919;52.344;14.518;2024-01-15T03:10:26;98440.78;;;1.33;100.00
13695;BME280;6919;52.344;14.518;2024-01-15T03:12:55;98446.84;;;1.43;100.00
13695;BME280;6919;52.344;14.518;2024-01-15T03:15:25;98444.72;;;1.29;100.00
13695;BME280;6919;52.344;14.518;2024-01-15T03:17:53;98444.63;;;1.39;100.00
13695;BME280;6919;52.344;14.518;2024-01-15T03:20:22;98445.91;;;1.35;100.00
13695;BME280;6919;52.344;14.518;2024-01-15T03:22:50;98446.84;;;1.43;100.00
13695;BME280;6919;52.344;14.518;2024-01-15T03:25:18;98441.19;;;1.38;100.00
13695;BME280;6919;52.344;14.518;2024-01-15T03:27:46;98420.44;;;1.26;100.00
13695;BME280;6919;52.344;14.518;2024-01-15T03:30:15;98429.16;;;1.26;100.00
13695;BME280;6919;52.344;14.518;2024-01-15T03:32:45;98412.31;;;1.37;100.00
13695;BME280;6919;52.344;14.518;2024-01-15T03:35:14;98414.53;;;1.32;100.00
13695;BME280;6919;52.344;14.518;2024-01-15T03:37:43;98405.72;;;1.23;100.00
13695;BME280;6919;52.344;14.518;2024-01-15T03:40:12;98410.69;;;1.26;100.00
13695;BME280;6919;52.344;14.518;2024-01-15T03:42:40;98413.88;;;1.30;100.00
13695;BME280;6919;52.344;14.518;2024-01-15T03:45:09;98404.97;;;1.31;100.00
13695;BME280;6919;52.344;14.518;2024-01-15T03:47:37;98401.97;;;1.26;100.00
13695;BME280;6919;52.344;14.518;2024-01-15T03:50:08;98396.97;;;1.23;100.00
13695;BME280;6919;52.344;14.518;2024-01-15T03:52:36;98387.09;;;1.25;100.00
13695;BME280;6919;52.344;14.518;2024-01-15T03:55:05;98394.94;;;1.34;100.00
13695;BME280;6919;52.344;14.518;2024-01-15T03:57:34;98382.66;;;1.25;100.00
13695;BME280;6919;52.344;14.518;2024-01-15T04:00:04;98386.13;;;1.26;100.00
13695;BME280;6919;52.344;14.518;2024-01-15T04:02:32;98387.78;;;1.27;100.00
13695;BME280;6919;52.344;14.518;2024-01-15T04:05:01;98369.00;;;1.30;100.00
13695;BME280;6919;52.344;14.518;2024-01-15T04:07:30;98381.91;;;1.33;100.00
13695;BME280;6919;52.344;14.518;2024-01-15T04:09:59;98367.72;;;1.34;100.00
13695;BME280;6919;52.344;14.518;2024-01-15T04:12:27;98367.88;;;1.32;100.00
13695;BME280;6919;52.344;14.518;2024-01-15T04:14:56;98365.28;;;1.40;100.00
13695;BME280;6919;52.344;14.518;2024-01-15T04:17:24;98355.34;;;1.34;100.00
13695;BME280;6919;52.344;14.518;2024-01-15T04:19:52;98359.22;;;1.40;100.00
13695;BME280;6919;52.344;14.518;2024-01-15T04:22:21;98359.13;;;1.49;100.00
13695;BME280;6919;52.344;14.518;2024-01-15T04:24:50;98353.28;;;1.46;100.00
13695;BME280;6919;52.344;14.518;2024-01-15T04:27:19;98350.66;;;1.46;100.00
13695;BME280;6919;52.344;14.518;2024-01-15T04:29:47;98361.22;;;1.46;100.00
13695;BME280;6919;52.344;14.518;2024-01-15T04:32:16;98347.94;;;1.55;100.00
13695;BME280;6919;52.344;14.518;2024-01-15T04:34:44;98349.88;;;1.71;100.00
13695;BME280;6919;52.344;14.518;2024-01-15T04:37:14;98345.28;;;1.73;100.00
13695;BME280;6919;52.344;14.518;2024-01-15T04:39:42;98330.03;;;1.67;100.00
13695;BME280;6919;52.344;14.518;2024-01-15T04:42:13;98321.47;;;1.65;100.00
13695;BME280;6919;52.344;14.518;2024-01-15T04:44:41;98310.56;;;1.68;100.00
13695;BME280;6919;52.344;14.518;2024-01-15T04:47:10;98321.50;;;1.73;100.00
13695;BME280;6919;52.344;14.518;2024-01-15T04:49:38;98299.09;;;1.77;100.00
13695;BME280;6919;52.344;14.518;2024-01-15T04:52:06;98287.75;;;1.84;100.00
13695;BME280;6919;52.344;14.518;2024-01-15T04:54:37;98291.19;;;1.85;100.00
13695;BME280;6919;52.344;14.518;2024-01-15T04:57:05;98273.25;;;1.88;100.00
13695;BME280;6919;52.344;14.518;2024-01-15T04:59:35;98276.81;;;1.79;100.00
13695;BME280;6919;52.344;14.518;2024-01-15T05:02:03;98275.31;;;1.77;100.00
13695;BME280;6919;52.344;14.518;2024-01-15T05:04:31;98276.19;;;1.85;100.00
13695;BME280;6919;52.344;14.518;2024-01-15T05:07:01;98275.47;;;1.75;100.00
13695;BME280;6919;52.344;14.518;2024-01-15T05:09:29;98266.38;;;1.78;100.00
13695;BME280;6919;52.344;14.518;2024-01-15T05:12:00;98280.91;;;1.74;100.00
13695;BME280;6919;52.344;14.518;2024-01-15T05:14:29;98277.09;;;1.76;100.00
13695;BME280;6919;52.344;14.518;2024-01-15T05:16:58;98282.38;;;1.76;100.00
13695;BME280;6919;52.344;14.518;2024-01-15T05:19:26;98267.72;;;1.82;100.00
13695;BME280;6919;52.344;14.518;2024-01-15T05:21:55;98275.66;;;1.82;100.00
13695;BME280;6919;52.344;14.518;2024-01-15T05:24:23;98235.72;;;1.85;100.00
13695;BME280;6919;52.344;14.518;2024-01-15T05:26:53;98263.63;;;1.87;100.00
13695;BME280;6919;52.344;14.518;2024-01-15T05:29:21;98267.81;;;1.90;100.00
13695;BME280;6919;52.344;14.518;2024-01-15T05:31:50;98243.03;;;1.91;100.00
13695;BME280;6919;52.344;14.518;2024-01-15T05:34:19;98243.53;;;1.94;100.00
13695;BME280;6919;52.344;14.518;2024-01-15T05:36:48;98257.75;;;2.01;100.00
13695;BME280;6919;52.344;14.518;2024-01-15T05:39:16;98269.28;;;1.92;100.00
13695;BME280;6919;52.344;14.518;2024-01-15T05:41:48;98272.44;;;1.96;100.00
13695;BME280;6919;52.344;14.518;2024-01-15T05:44:16;98270.38;;;2.15;100.00
13695;BME280;6919;52.344;14.518;2024-01-15T05:46:44;98270.50;;;2.06;100.00
13695;BME280;6919;52.344;14.518;2024-01-15T05:49:12;98245.00;;;1.89;100.00
13695;BME280;6919;52.344;14.518;2024-01-15T05:51:42;98256.09;;;1.92;100.00
13695;BME280;6919;52.344;14.518;2024-01-15T05:54:11;98245.50;;;1.92;100.00
13695;BME280;6919;52.344;14.518;2024-01-15T05:56:39;98257.59;;;2.03;100.00
13695;BME280;6919;52.344;14.518;2024-01-15T05:59:07;98255.66;;;2.05;100.00
13695;BME280;6919;52.344;14.518;2024-01-15T06:01:39;98249.03;;;2.01;100.00
13695;BME280;6919;52.344;14.518;2024-01-15T06:04:08;98257.56;;;1.95;100.00
13695;BME280;6919;52.344;14.518;2024-01-15T06:06:37;98237.06;;;1.89;100.00
13695;BME280;6919;52.344;14.518;2024-01-15T06:09:06;98241.22;;;1.91;100.00
13695;BME280;6919;52.344;14.518;2024-01-15T06:11:35;98246.34;;;1.93;100.00
13695;BME280;6919;52.344;14.518;2024-01-15T06:14:04;98239.69;;;1.89;100.00
13695;BME280;6919;52.344;14.518;2024-01-15T06:16:32;98247.78;;;1.87;100.00
13695;BME280;6919;52.344;14.518;2024-01-15T06:19:00;98247.69;;;1.97;100.00
13695;BME280;6919;52.344;14.518;2024-01-15T06:21:29;98236.75;;;1.92;100.00
13695;BME280;6919;52.344;14.518;2024-01-15T06:23:57;98238.22;;;1.86;100.00
13695;BME280;6919;52.344;14.518;2024-01-15T06:26:27;98241.00;;;1.85;100.00
13695;BME280;6919;52.344;14.518;2024-01-15T06:28:55;98234.41;;;1.89;100.00
13695;BME280;6919;52.344;14.518;2024-01-15T06:31:23;98221.28;;;1.97;100.00
13695;BME280;6919;52.344;14.518;2024-01-15T06:33:52;98216.47;;;2.00;100.00
13695;BME280;6919;52.344;14.518;2024-01-15T06:36:21;98221.13;;;2.06;100.00
13695;BME280;6919;52.344;14.518;2024-01-15T06:38:49;98231.03;;;2.04;100.00
13695;BME280;6919;52.344;14.518;2024-01-15T06:41:17;98227.56;;;2.04;100.00
13695;BME280;6919;52.344;14.518;2024-01-15T06:43:47;98223.38;;;1.93;100.00
13695;BME280;6919;52.344;14.518;2024-01-15T06:46:20;98219.66;;;2.04;100.00
13695;BME280;6919;52.344;14.518;2024-01-15T06:48:49;98221.63;;;2.10;100.00
13695;BME280;6919;52.344;14.518;2024-01-15T06:51:17;98238.44;;;1.93;100.00
13695;BME280;6919;52.344;14.518;2024-01-15T06:53:45;98246.00;;;1.96;100.00
13695;BME280;6919;52.344;14.518;2024-01-15T06:56:14;98240.72;;;1.96;100.00
13695;BME280;6919;52.344;14.518;2024-01-15T06:58:42;98250.28;;;1.89;100.00
13695;BME280;6919;52.344;14.518;2024-01-15T07:01:12;98261.63;;;1.81;100.00
13695;BME280;6919;52.344;14.518;2024-01-15T07:03:40;98221.91;;;1.91;100.00
13695;BME280;6919;52.344;14.518;2024-01-15T07:06:08;98239.94;;;1.95;100.00
13695;BME280;6919;52.344;14.518;2024-01-15T07:08:37;98260.38;;;1.93;100.00
13695;BME280;6919;52.344;14.518;2024-01-15T07:11:06;98264.84;;;1.93;100.00
13695;BME280;6919;52.344;14.518;2024-01-15T07:13:37;98250.66;;;1.94;100.00
13695;BME280;6919;52.344;14.518;2024-01-15T07:16:05;98250.81;;;1.92;100.00
13695;BME280;6919;52.344;14.518;2024-01-15T07:18:35;98258.56;;;1.94;100.00
13695;BME280;6919;52.344;14.518;2024-01-15T07:21:04;98255.28;;;2.00;100.00
13695;BME280;6919;52.344;14.518;2024-01-15T07:23:32;98242.72;;;1.94;100.00
13695;BME280;6919;52.344;14.518;2024-01-15T07:26:00;98258.91;;;1.99;100.00
13695;BME280;6919;52.344;14.518;2024-01-15T07:28:29;98261.53;;;1.91;100.00
13695;BME280;6919;52.344;14.518;2024-01-15T07:30:57;98245.38;;;1.94;100.00
13695;BME280;6919;52.344;14.518;2024-01-15T07:33:26;98244.13;;;1.80;100.00
13695;BME280;6919;52.344;14.518;2024-01-15T07:35:56;98253.59;;;1.91;100.00
13695;BME280;6919;52.344;14.518;2024-01-15T07:38:29;98247.44;;;1.82;100.00
13695;BME280;6919;52.344;14.518;2024-01-15T07:40:57;98266.03;;;1.98;100.00
13695;BME280;6919;52.344;14.518;2024-01-15T07:43:26;98244.69;;;1.92;100.00
13695;BME280;6919;52.344;14.518;2024-01-15T07:45:54;98246.00;;;1.96;100.00
13695;BME280;6919;52.344;14.518;2024-01-15T07:48:23;98246.66;;;1.90;100.00
13695;BME280;6919;52.344;14.518;2024-01-15T07:50:51;98253.28;;;1.94;100.00
13695;BME280;6919;52.344;14.518;2024-01-15T07:53:21;98240.88;;;1.94;100.00
13695;BME280;6919;52.344;14.518;2024-01-15T07:55:49;98245.66;;;1.91;100.00
13695;BME280;6919;52.344;14.518;2024-01-15T07:58:17;98250.19;;;1.98;100.00
13695;BME280;6919;52.344;14.518;2024-01-15T08:00:46;98274.03;;;1.89;100.00
13695;BME280;6919;52.344;14.518;2024-01-15T08:03:14;98262.22;;;1.93;100.00
13695;BME280;6919;52.344;14.518;2024-01-15T08:05:42;98259.31;;;1.78;100.00
13695;BME280;6919;52.344;14.518;2024-01-15T08:08:11;98289.91;;;1.89;100.00
13695;BME280;6919;52.344;14.518;2024-01-15T08:10:40;98294.94;;;1.74;100.00
13695;BME280;6919;52.344;14.518;2024-01-15T08:13:08;98305.47;;;1.66;100.00
13695;BME280;6919;52.344;14.518;2024-01-15T08:15:37;98296.16;;;1.62;100.00
13695;BME280;6919;52.344;14.518;2024-01-15T08:18:05;98307.09;;;1.67;100.00
13695;BME280;6919;52.344;14.518;2024-01-15T08:20:34;98308.97;;;1.75;100.00
13695;BME280;6919;52.344;14.518;2024-01-15T08:23:02;98312.59;;;1.74;100.00
13695;BME280;6919;52.344;14.518;2024-01-15T08:25:31;98307.25;;;1.66;100.00
13695;BME280;6919;52.344;14.518;2024-01-15T08:28:01;98336.91;;;3.44;100.00
13695;BME280;6919;52.344;14.518;2024-01-15T08:30:29;98300.97;;;7.60;100.00
13695;BME280;6919;52.344;14.518;2024-01-15T08:32:57;98279.00;;;8.13;100.00
13695;BME280;6919;52.344;14.518;2024-01-15T08:35:34;98260.59;;;6.85;100.00
13695;BME280;6919;52.344;14.518;2024-01-15T08:38:03;98269.47;;;7.70;100.00
13695;BME280;6919;52.344;14.518;2024-01-15T08:40:31;98279.25;;;7.90;100.00
13695;BME280;6919;52.344;14.518;2024-01-15T08:43:01;98276.94;;;8.08;100.00
13695;BME280;6919;52.344;14.518;2024-01-15T08:45:30;98271.63;;;8.42;100.00
13695;BME280;6919;52.344;14.518;2024-01-15T08:47:58;98274.72;;;7.21;100.00
13695;BME280;6919;52.344;14.518;2024-01-15T08:50:29;98273.84;;;8.05;100.00
13695;BME280;6919;52.344;14.518;2024-01-15T08:52:59;98281.09;;;7.41;100.00
13695;BME280;6919;52.344;14.518;2024-01-15T08:55:27;98270.97;;;7.16;100.00
13695;BME280;6919;52.344;14.518;2024-01-15T08:57:55;98274.50;;;7.37;100.00
13695;BME280;6919;52.344;14.518;2024-01-15T09:00:25;98270.25;;;6.22;100.00
13695;BME280;6919;52.344;14.518;2024-01-15T09:02:53;98250.63;;;5.71;100.00
13695;BME280;6919;52.344;14.518;2024-01-15T09:05:22;98252.53;;;6.29;100.00
13695;BME280;6919;52.344;14.518;2024-01-15T09:07:50;98257.94;;;6.35;100.00
13695;BME280;6919;52.344;14.518;2024-01-15T09:10:19;98258.25;;;5.74;100.00
13695;BME280;6919;52.344;14.518;2024-01-15T09:12:48;98249.41;;;5.96;100.00
13695;BME280;6919;52.344;14.518;2024-01-15T09:15:17;98253.81;;;6.03;100.00
13695;BME280;6919;52.344;14.518;2024-01-15T09:17:47;98278.53;;;6.77;100.00
13695;BME280;6919;52.344;14.518;2024-01-15T09:20:15;98265.88;;;6.64;100.00
13695;BME280;6919;52.344;14.518;2024-01-15T09:22:44;98278.53;;;7.12;100.00
13695;BME280;6919;52.344;14.518;2024-01-15T09:25:12;98283.50;;;7.57;100.00
13695;BME280;6919;52.344;14.518;2024-01-15T09:27:41;98282.34;;;6.39;100.00
13695;BME280;6919;52.344;14.518;2024-01-15T09:30:10;98288.31;;;6.41;100.00
13695;BME280;6919;52.344;14.518;2024-01-15T09:32:39;98286.47;;;6.41;100.00
13695;BME280;6919;52.344;14.518;2024-01-15T09:35:09;98291.88;;;6.33;100.00
13695;BME280;6919;52.344;14.518;2024-01-15T09:37:39;98288.19;;;6.78;100.00
13695;BME280;6919;52.344;14.518;2024-01-15T09:40:15;98290.00;;;7.13;100.00
13695;BME280;6919;52.344;14.518;2024-01-15T09:42:44;98291.53;;;6.51;100.00
13695;BME280;6919;52.344;14.518;2024-01-15T09:45:14;98294.47;;;7.27;100.00
13695;BME280;6919;52.344;14.518;2024-01-15T09:47:43;98287.94;;;6.15;100.00
13695;BME280;6919;52.344;14.518;2024-01-15T09:50:14;98281.72;;;6.87;100.00
13695;BME280;6919;52.344;14.518;2024-01-15T09:52:44;98271.63;;;6.18;100.00
13695;BME280;6919;52.344;14.518;2024-01-15T09:55:13;98279.88;;;7.23;100.00
13695;BME280;6919;52.344;14.518;2024-01-15T09:57:44;98273.56;;;6.74;100.00
13695;BME280;6919;52.344;14.518;2024-01-15T10:00:17;98242.88;;;6.28;100.00
13695;BME280;6919;52.344;14.518;2024-01-15T10:02:46;98279.72;;;6.74;100.00
13695;BME280;6919;52.344;14.518;2024-01-15T10:05:15;98270.81;;;6.32;100.00
13695;BME280;6919;52.344;14.518;2024-01-15T10:07:47;98257.75;;;6.07;100.00
13695;BME280;6919;52.344;14.518;2024-01-15T10:10:17;98248.78;;;6.08;100.00
13695;BME280;6919;52.344;14.518;2024-01-15T10:12:45;98254.09;;;6.08;100.00
13695;BME280;6919;52.344;14.518;2024-01-15T10:15:14;98238.22;;;5.63;100.00
13695;BME280;6919;52.344;14.518;2024-01-15T10:17:42;98247.69;;;5.80;100.00
13695;BME280;6919;52.344;14.518;2024-01-15T10:20:12;98263.53;;;5.96;100.00
13695;BME280;6919;52.344;14.518;2024-01-15T10:22:42;98264.72;;;6.38;100.00
13695;BME280;6919;52.344;14.518;2024-01-15T10:25:14;98275.88;;;7.12;100.00
13695;BME280;6919;52.344;14.518;2024-01-15T10:27:43;98269.41;;;6.21;100.00
13695;BME280;6919;52.344;14.518;2024-01-15T10:30:13;98268.06;;;6.75;100.00
13695;BME280;6919;52.344;14.518;2024-01-15T10:32:58;98270.66;;;6.54;100.00
13695;BME280;6919;52.344;14.518;2024-01-15T10:35:30;98267.38;;;6.38;100.00
13695;BME280;6919;52.344;14.518;2024-01-15T10:38:00;98263.34;;;5.98;100.00
13695;BME280;6919;52.344;14.518;2024-01-15T10:40:29;98274.34;;;6.09;100.00
13695;BME280;6919;52.344;14.518;2024-01-15T10:42:58;98269.31;;;5.77;100.00
13695;BME280;6919;52.344;14.518;2024-01-15T10:45:26;98272.34;;;5.74;100.00
13695;BME280;6919;52.344;14.518;2024-01-15T10:47:55;98262.72;;;6.75;100.00
13695;BME280;6919;52.344;14.518;2024-01-15T10:50:26;98250.97;;;5.90;100.00
13695;BME280;6919;52.344;14.518;2024-01-15T10:52:56;98246.13;;;6.23;100.00
13695;BME280;6919;52.344;14.518;2024-01-15T10:55:26;98233.28;;;6.12;100.00
13695;BME280;6919;52.344;14.518;2024-01-15T10:57:55;98246.56;;;6.27;100.00
13695;BME280;6919;52.344;14.518;2024-01-15T11:00:25;98246.72;;;6.54;100.00
13695;BME280;6919;52.344;14.518;2024-01-15T11:02:55;98250.03;;;7.13;100.00
13695;BME280;6919;52.344;14.518;2024-01-15T11:05:25;98247.31;;;6.06;100.00
13695;BME280;6919;52.344;14.518;2024-01-15T11:07:55;98244.34;;;6.45;100.00
13695;BME280;6919;52.344;14.518;2024-01-15T11:10:42;98258.06;;;6.77;100.00
13695;BME280;6919;52.344;14.518;2024-01-15T11:13:20;98261.88;;;6.54;100.00
13695;BME280;6919;52.344;14.518;2024-01-15T11:16:00;98242.53;;;6.16;100.00
13695;BME280;6919;52.344;14.518;2024-01-15T11:18:30;98265.66;;;7.16;100.00
13695;BME280;6919;52.344;14.518;2024-01-15T11:21:23;98266.72;;;6.65;100.00
13695;BME280;6919;52.344;14.518;2024-01-15T11:23:56;98260.47;;;6.93;100.00
13695;BME280;6919;52.344;14.518;2024-01-15T11:26:35;98237.69;;;6.70;100.00
13695;BME280;6919;52.344;14.518;2024-01-15T11:29:05;98253.28;;;6.73;100.00
13695;BME280;6919;52.344;14.518;2024-01-15T11:31:57;98256.53;;;7.04;100.00
13695;BME280;6919;52.344;14.518;2024-01-15T11:34:58;98263.34;;;8.03;100.00
13695;BME280;6919;52.344;14.518;2024-01-15T11:37:56;98254.16;;;6.94;100.00
13695;BME280;6919;52.344;14.518;2024-01-15T11:40:38;98264.38;;;7.54;100.00
13695;BME280;6919;52.344;14.518;2024-01-15T11:43:10;98242.72;;;7.00;100.00
13695;BME280;6919;52.344;14.518;2024-01-15T11:45:40;98254.97;;;7.58;100.00
13695;BME280;6919;52.344;14.518;2024-01-15T11:48:14;98256.66;;;7.17;100.00
13695;BME280;6919;52.344;14.518;2024-01-15T11:50:46;98269.94;;;7.80;100.00
13695;BME280;6919;52.344;14.518;2024-01-15T11:53:21;98256.41;;;7.33;100.00
13695;BME280;6919;52.344;14.518;2024-01-15T11:55:58;98254.94;;;7.09;100.00
13695;BME280;6919;52.344;14.518;2024-01-15T11:58:29;98244.13;;;6.96;100.00
13695;BME280;6919;52.344;14.518;2024-01-15T12:00:57;98241.81;;;7.29;100.00
13695;BME280;6919;52.344;14.518;2024-01-15T12:03:27;98240.53;;;7.25;100.00
13695;BME280;6919;52.344;14.518;2024-01-15T12:05:55;98247.25;;;7.63;100.00
13695;BME280;6919;52.344;14.518;2024-01-15T12:08:25;98245.16;;;7.16;100.00
13695;BME280;6919;52.344;14.518;2024-01-15T12:10:54;98251.28;;;8.07;100.00
13695;BME280;6919;52.344;14.518;2024-01-15T12:13:24;98256.66;;;7.59;100.00
13695;BME280;6919;52.344;14.518;2024-01-15T12:15:54;98260.88;;;8.02;100.00
13695;BME280;6919;52.344;14.518;2024-01-15T12:18:23;98264.03;;;7.84;100.00
13695;BME280;6919;52.344;14.518;2024-01-15T12:20:54;98262.47;;;7.48;100.00
13695;BME280;6919;52.344;14.518;2024-01-15T12:23:24;98264.34;;;7.75;100.00
13695;BME280;6919;52.344;14.518;2024-01-15T12:25:54;98266.22;;;8.02;100.00
13695;BME280;6919;52.344;14.518;2024-01-15T12:28:23;98254.78;;;8.42;100.00
13695;BME280;6919;52.344;14.518;2024-01-15T12:30:52;98275.19;;;7.25;100.00
13695;BME280;6919;52.344;14.518;2024-01-15T12:33:21;98268.59;;;7.21;100.00
13695;BME280;6919;52.344;14.518;2024-01-15T12:35:53;98269.47;;;7.49;100.00
13695;BME280;6919;52.344;14.518;2024-01-15T12:38:21;98256.66;;;6.96;100.00
13695;BME280;6919;52.344;14.518;2024-01-15T12:40:49;98248.25;;;7.41;100.00
13695;BME280;6919;52.344;14.518;2024-01-15T12:43:18;98249.00;;;6.57;100.00
13695;BME280;6919;52.344;14.518;2024-01-15T12:45:47;98262.72;;;6.90;100.00
13695;BME280;6919;52.344;14.518;2024-01-15T12:48:16;98267.06;;;6.76;100.00
13695;BME280;6919;52.344;14.518;2024-01-15T12:50:46;98265.41;;;6.75;100.00
13695;BME280;6919;52.344;14.518;2024-01-15T12:53:14;98268.41;;;7.43;100.00
13695;BME280;6919;52.344;14.518;2024-01-15T12:55:44;98281.78;;;6.93;100.00
13695;BME280;6919;52.344;14.518;2024-01-15T12:58:12;98290.22;;;7.11;100.00
13695;BME280;6919;52.344;14.518;2024-01-15T13:00:42;98286.25;;;6.72;100.00
13695;BME280;6919;52.344;14.518;2024-01-15T13:03:10;98284.03;;;6.75;100.00
13695;BME280;6919;52.344;14.518;2024-01-15T13:05:41;98298.00;;;6.63;100.00
13695;BME280;6919;52.344;14.518;2024-01-15T13:08:09;98291.31;;;6.38;100.00
13695;BME280;6919;52.344;14.518;2024-01-15T13:10:38;98291.94;;;6.83;100.00
13695;BME280;6919;52.344;14.518;2024-01-15T13:13:06;98271.50;;;6.40;100.00